sensor_id;sensor_type;location;lat;lon;timestamp;P1;durP1;ratioP1;P2;durP2;ratioP2
9761;SDS011;4920;49.594;11.022;2023-06-14T00:00:35;8.00;;;5.13;;
9761;SDS011;4920;49.594;11.022;2023-06-14T00:03:06;6.93;;;4.85;;
9761;SDS011;4920;49.594;11.022;2023-06-14T00:05:35;6.10;;;4.63;;
9761;SDS011;4920;49.594;11.022;2023-06-14T00:08:08;8.10;;;4.65;;
9761;SDS011;4920;49.594;11.022;2023-06-14T00:10:39;6.03;;;4.80;;
9761;SDS011;4920;49.594;11.022;2023-06-14T00:13:09;6.70;;;4.80;;
9761;SDS011;4920;49.594;11.022;2023-06-14T00:15:37;5.37;;;4.50;;
9761;SDS011;4920;49.594;11.022;2023-06-14T00:18:06;6.30;;;4.55;;
9761;SDS011;4920;49.594;11.022;2023-06-14T00:20:38;8.67;;;4.53;;
9761;SDS011;4920;49.594;11.022;2023-06-14T00:23:08;6.60;;;4.90;;
9761;SDS011;4920;49.594;11.022;2023-06-14T00:25:38;6.60;;;4.10;;
9761;SDS011;4920;49.594;11.022;2023-06-14T00:28:07;8.77;;;4.33;;
9761;SDS011;4920;49.594;11.022;2023-06-14T00:30:36;6.20;;;4.40;;
9761;SDS011;4920;49.594;11.022;2023-06-14T00:33:05;7.77;;;4.60;;
9761;SDS011;4920;49.594;11.022;2023-06-14T00:35:33;6.60;;;4.30;;
9761;SDS011;4920;49.594;11.022;2023-06-14T00:38:03;6.30;;;4.20;;
9761;SDS011;4920;49.594;11.022;2023-06-14T00:40:32;5.97;;;4.60;;
9761;SDS011;4920;49.594;11.022;2023-06-14T00:43:02;5.23;;;3.87;;
9761;SDS011;4920;49.594;11.022;2023-06-14T00:45:31;6.53;;;4.20;;
9761;SDS011;4920;49.594;11.022;2023-06-14T00:48:02;7.90;;;4.17;;
9761;SDS011;4920;49.594;11.022;2023-06-14T00:50:33;6.10;;;4.20;;
9761;SDS011;4920;49.594;11.022;2023-06-14T00:53:03;7.70;;;4.40;;
9761;SDS011;4920;49.594;11.022;2023-06-14T00:55:32;7.77;;;4.30;;
9761;SDS011;4920;49.594;11.022;2023-06-14T00:58:03;7.10;;;4.20;;
9761;SDS011;4920;49.594;11.022;2023-06-14T01:00:32;7.27;;;4.50;;
9761;SDS011;4920;49.594;11.022;2023-06-14T01:03:00;6.60;;;4.03;;
9761;SDS011;4920;49.594;11.022;2023-06-14T01:05:29;6.20;;;4.20;;
9761;SDS011;4920;49.594;11.022;2023-06-14T01:08:04;5.73;;;4.77;;
9761;SDS011;4920;49.594;11.022;2023-06-14T01:10:44;7.40;;;4.50;;
9761;SDS011;4920;49.594;11.022;2023-06-14T01:13:21;5.77;;;4.40;;
9761;SDS011;4920;49.594;11.022;2023-06-14T01:15:55;5.43;;;4.30;;
9761;SDS011;4920;49.594;11.022;2023-06-14T01:18:26;5.70;;;4.20;;
9761;SDS011;4920;49.594;11.022;2023-06-14T01:20:56;7.40;;;4.10;;
9761;SDS011;4920;49.594;11.022;2023-06-14T01:23:27;6.63;;;4.63;;
9761;SDS011;4920;49.594;11.022;2023-06-14T01:25:59;5.27;;;4.33;;
9761;SDS011;4920;49.594;11.022;2023-06-14T01:28:33;7.73;;;4.67;;
9761;SDS011;4920;49.594;11.022;2023-06-14T01:31:03;7.00;;;4.20;;
9761;SDS011;4920;49.594;11.022;2023-06-14T01:33:33;5.60;;;4.50;;
9761;SDS011;4920;49.594;11.022;2023-06-14T01:36:04;7.87;;;4.33;;
9761;SDS011;4920;49.594;11.022;2023-06-14T01:38:36;8.13;;;4.63;;
9761;SDS011;4920;49.594;11.022;2023-06-14T01:41:06;6.87;;;4.93;;
9761;SDS011;4920;49.594;11.022;2023-06-14T01:43:35;7.23;;;4.40;;
9761;SDS011;4920;49.594;11.022;2023-06-14T01:46:05;7.03;;;4.73;;
9761;SDS011;4920;49.594;11.022;2023-06-14T01:48:36;7.67;;;5.07;;
9761;SDS011;4920;49.594;11.022;2023-06-14T01:51:05;5.13;;;4.63;;
9761;SDS011;4920;49.594;11.022;2023-06-14T01:53:33;6.83;;;5.40;;
9761;SDS011;4920;49.594;11.022;2023-06-14T01:56:04;5.97;;;4.90;;
9761;SDS011;4920;49.594;11.022;2023-06-14T01:58:34;5.80;;;5.03;;
9761;SDS011;4920;49.594;11.022;2023-06-14T02:01:03;5.47;;;4.97;;
9761;SDS011;4920;49.594;11.022;2023-06-14T02:03:32;6.37;;;4.90;;
9761;SDS011;4920;49.594;11.022;2023-06-14T02:06:01;7.50;;;5.57;;
9761;SDS011;4920;49.594;11.022;2023-06-14T02:08:30;7.33;;;5.17;;
9761;SDS011;4920;49.594;11.022;2023-06-14T02:11:01;8.57;;;5.07;;
9761;SDS011;4920;49.594;11.022;2023-06-14T02:13:30;6.60;;;5.43;;
9761;SDS011;4920;49.594;11.022;2023-06-14T02:15:59;8.77;;;5.73;;
9761;SDS011;4920;49.594;11.022;2023-06-14T02:18:28;6.77;;;5.57;;
9761;SDS011;4920;49.594;11.022;2023-06-14T02:20:56;8.00;;;5.33;;
9761;SDS011;4920;49.594;11.022;2023-06-14T02:23:25;6.90;;;5.30;;
9761;SDS011;4920;49.594;11.022;2023-06-14T02:25:54;8.97;;;5.17;;
9761;SDS011;4920;49.594;11.022;2023-06-14T02:28:24;6.37;;;5.67;;
9761;SDS011;4920;49.594;11.022;2023-06-14T02:30:53;7.07;;;5.90;;
9761;SDS011;4920;49.594;11.022;2023-06-14T02:33:22;7.33;;;5.87;;
9761;SDS011;4920;49.594;11.022;2023-06-14T02:35:52;7.37;;;6.00;;
9761;SDS011;4920;49.594;11.022;2023-06-14T02:38:20;10.70;;;5.90;;
9761;SDS011;4920;49.594;11.022;2023-06-14T02:40:49;7.40;;;5.67;;
9761;SDS011;4920;49.594;11.022;2023-06-14T02:43:17;9.43;;;6.07;;
9761;SDS011;4920;49.594;11.022;2023-06-14T02:45:48;8.10;;;5.53;;
9761;SDS011;4920;49.594;11.022;2023-06-14T02:48:17;9.17;;;5.83;;
9761;SDS011;4920;49.594;11.022;2023-06-14T02:50:46;8.30;;;5.90;;
9761;SDS011;4920;49.594;11.022;2023-06-14T02:53:15;6.50;;;5.40;;
9761;SDS011;4920;49.594;11.022;2023-06-14T02:55:44;6.60;;;5.50;;
9761;SDS011;4920;49.594;11.022;2023-06-14T02:58:14;7.97;;;5.50;;
9761;SDS011;4920;49.594;11.022;2023-06-14T03:00:45;7.50;;;5.50;;
9761;SDS011;4920;49.594;11.022;2023-06-14T03:03:15;6.63;;;5.60;;
9761;SDS011;4920;49.594;11.022;2023-06-14T03:05:50;6.63;;;5.20;;
9761;SDS011;4920;49.594;11.022;2023-06-14T03:08:24;7.50;;;5.50;;
9761;SDS011;4920;49.594;11.022;2023-06-14T03:10:59;9.40;;;5.77;;
9761;SDS011;4920;49.594;11.022;2023-06-14T03:13:29;9.60;;;5.80;;
9761;SDS011;4920;49.594;11.022;2023-06-14T03:15:59;9.70;;;5.87;;
9761;SDS011;4920;49.594;11.022;2023-06-14T03:18:33;8.47;;;5.57;;
9761;SDS011;4920;49.594;11.022;2023-06-14T03:21:05;8.70;;;5.20;;
9761;SDS011;4920;49.594;11.022;2023-06-14T03:23:38;6.27;;;5.00;;
9761;SDS011;4920;49.594;11.022;2023-06-14T03:26:08;6.43;;;4.83;;
9761;SDS011;4920;49.594;11.022;2023-06-14T03:28:40;7.33;;;4.90;;
9761;SDS011;4920;49.594;11.022;2023-06-14T03:31:09;6.23;;;4.83;;
9761;SDS011;4920;49.594;11.022;2023-06-14T03:33:39;7.00;;;5.07;;
9761;SDS011;4920;49.594;11.022;2023-06-14T03:36:08;6.87;;;5.23;;
9761;SDS011;4920;49.594;11.022;2023-06-14T03:38:37;7.40;;;5.30;;
9761;SDS011;4920;49.594;11.022;2023-06-14T03:41:07;7.73;;;5.17;;
9761;SDS011;4920;49.594;11.022;2023-06-14T03:43:37;6.17;;;5.00;;
9761;SDS011;4920;49.594;11.022;2023-06-14T03:46:06;8.03;;;5.00;;
9761;SDS011;4920;49.594;11.022;2023-06-14T03:48:35;9.30;;;5.80;;
9761;SDS011;4920;49.594;11.022;2023-06-14T03:51:05;8.33;;;5.30;;
9761;SDS011;4920;49.594;11.022;2023-06-14T03:53:36;8.87;;;5.30;;
9761;SDS011;4920;49.594;11.022;2023-06-14T03:56:24;7.97;;;5.17;;
9761;SDS011;4920;49.594;11.022;2023-06-14T03:58:53;7.30;;;5.17;;
9761;SDS011;4920;49.594;11.022;2023-06-14T04:01:24;8.20;;;5.00;;
9761;SDS011;4920;49.594;11.022;2023-06-14T04:03:58;5.40;;;4.83;;
9761;SDS011;4920;49.594;11.022;2023-06-14T04:06:29;8.27;;;5.00;;
9761;SDS011;4920;49.594;11.022;2023-06-14T04:08:59;6.57;;;5.07;;
9761;SDS011;4920;49.594;11.022;2023-06-14T04:11:32;7.90;;;5.13;;
9761;SDS011;4920;49.594;11.022;2023-06-14T04:14:02;7.47;;;4.97;;
9761;SDS011;4920;49.594;11.022;2023-06-14T04:16:31;5.77;;;4.53;;
9761;SDS011;4920;49.594;11.022;2023-06-14T04:19:00;5.30;;;4.72;;
9761;SDS011;4920;49.594;11.022;2023-06-14T04:21:30;7.88;;;5.03;;
9761;SDS011;4920;49.594;11.022;2023-06-14T04:24:03;6.63;;;4.57;;
9761;SDS011;4920;49.594;11.022;2023-06-14T04:26:33;7.15;;;4.63;;
9761;SDS011;4920;49.594;11.022;2023-06-14T04:29:03;7.13;;;4.47;;
9761;SDS011;4920;49.594;11.022;2023-06-14T04:31:39;10.30;;;5.28;;
9761;SDS011;4920;49.594;11.022;2023-06-14T04:34:10;7.38;;;5.10;;
9761;SDS011;4920;49.594;11.022;2023-06-14T04:36:51;8.63;;;4.93;;
9761;SDS011;4920;49.594;11.022;2023-06-14T04:39:28;6.00;;;4.82;;
9761;SDS011;4920;49.594;11.022;2023-06-14T04:41:59;8.73;;;4.70;;
9761;SDS011;4920;49.594;11.022;2023-06-14T04:44:31;5.55;;;4.95;;
9761;SDS011;4920;49.594;11.022;2023-06-14T04:47:02;6.07;;;4.82;;
9761;SDS011;4920;49.594;11.022;2023-06-14T04:49:31;5.95;;;4.70;;
9761;SDS011;4920;49.594;11.022;2023-06-14T04:52:02;5.35;;;4.40;;
9761;SDS011;4920;49.594;11.022;2023-06-14T04:54:36;5.32;;;4.80;;
9761;SDS011;4920;49.594;11.022;2023-06-14T04:57:07;8.73;;;4.78;;
9761;SDS011;4920;49.594;11.022;2023-06-14T04:59:42;6.70;;;4.88;;
9761;SDS011;4920;49.594;11.022;2023-06-14T05:02:11;4.90;;;4.28;;
9761;SDS011;4920;49.594;11.022;2023-06-14T05:04:40;5.10;;;4.60;;
9761;SDS011;4920;49.594;11.022;2023-06-14T05:07:13;5.20;;;4.50;;
9761;SDS011;4920;49.594;11.022;2023-06-14T05:09:42;5.40;;;4.40;;
9761;SDS011;4920;49.594;11.022;2023-06-14T05:12:12;5.70;;;4.13;;
9761;SDS011;4920;49.594;11.022;2023-06-14T05:14:45;5.10;;;4.60;;
9761;SDS011;4920;49.594;11.022;2023-06-14T05:17:17;5.43;;;4.40;;
9761;SDS011;4920;49.594;11.022;2023-06-14T05:19:47;5.10;;;4.43;;
9761;SDS011;4920;49.594;11.022;2023-06-14T05:22:18;9.38;;;4.30;;
9761;SDS011;4920;49.594;11.022;2023-06-14T05:24:46;5.72;;;4.70;;
9761;SDS011;4920;49.594;11.022;2023-06-14T05:27:16;7.18;;;4.88;;
9761;SDS011;4920;49.594;11.022;2023-06-14T05:29:44;5.20;;;4.68;;
9761;SDS011;4920;49.594;11.022;2023-06-14T05:32:13;5.82;;;4.47;;
9761;SDS011;4920;49.594;11.022;2023-06-14T05:34:42;7.22;;;4.63;;
9761;SDS011;4920;49.594;11.022;2023-06-14T05:37:11;7.38;;;5.00;;
9761;SDS011;4920;49.594;11.022;2023-06-14T05:39:41;5.75;;;4.78;;
9761;SDS011;4920;49.594;11.022;2023-06-14T05:42:10;6.38;;;4.70;;
9761;SDS011;4920;49.594;11.022;2023-06-14T05:44:39;7.82;;;5.20;;
9761;SDS011;4920;49.594;11.022;2023-06-14T05:47:08;6.40;;;5.03;;
9761;SDS011;4920;49.594;11.022;2023-06-14T05:49:36;7.63;;;5.20;;
9761;SDS011;4920;49.594;11.022;2023-06-14T05:52:05;7.20;;;5.13;;
9761;SDS011;4920;49.594;11.022;2023-06-14T05:54:35;6.05;;;5.00;;
9761;SDS011;4920;49.594;11.022;2023-06-14T05:57:05;8.80;;;4.90;;
9761;SDS011;4920;49.594;11.022;2023-06-14T05:59:34;7.57;;;5.10;;
9761;SDS011;4920;49.594;11.022;2023-06-14T06:02:03;6.30;;;5.30;;
9761;SDS011;4920;49.594;11.022;2023-06-14T06:04:32;9.55;;;5.20;;
9761;SDS011;4920;49.594;11.022;2023-06-14T06:07:01;8.60;;;4.88;;
9761;SDS011;4920;49.594;11.022;2023-06-14T06:09:30;5.65;;;5.03;;
9761;SDS011;4920;49.594;11.022;2023-06-14T06:11:59;5.57;;;4.47;;
9761;SDS011;4920;49.594;11.022;2023-06-14T06:14:29;8.35;;;4.90;;
9761;SDS011;4920;49.594;11.022;2023-06-14T06:16:58;7.75;;;4.93;;
9761;SDS011;4920;49.594;11.022;2023-06-14T06:19:26;5.38;;;4.55;;
9761;SDS011;4920;49.594;11.022;2023-06-14T06:21:55;5.28;;;4.25;;
9761;SDS011;4920;49.594;11.022;2023-06-14T06:24:24;7.28;;;4.70;;
9761;SDS011;4920;49.594;11.022;2023-06-14T06:26:53;5.97;;;4.53;;
9761;SDS011;4920;49.594;11.022;2023-06-14T06:29:21;8.52;;;4.70;;
9761;SDS011;4920;49.594;11.022;2023-06-14T06:31:51;6.30;;;4.32;;
9761;SDS011;4920;49.594;11.022;2023-06-14T06:34:20;5.70;;;4.93;;
9761;SDS011;4920;49.594;11.022;2023-06-14T06:36:49;4.72;;;4.22;;
9761;SDS011;4920;49.594;11.022;2023-06-14T06:39:18;6.65;;;4.57;;
9761;SDS011;4920;49.594;11.022;2023-06-14T06:41:46;6.38;;;4.90;;
9761;SDS011;4920;49.594;11.022;2023-06-14T06:44:26;5.47;;;4.30;;
9761;SDS011;4920;49.594;11.022;2023-06-14T06:46:57;5.30;;;4.38;;
9761;SDS011;4920;49.594;11.022;2023-06-14T06:49:26;7.75;;;4.45;;
9761;SDS011;4920;49.594;11.022;2023-06-14T06:52:01;6.10;;;4.40;;
9761;SDS011;4920;49.594;11.022;2023-06-14T06:54:31;5.53;;;4.60;;
9761;SDS011;4920;49.594;11.022;2023-06-14T06:57:00;6.80;;;4.28;;
9761;SDS011;4920;49.594;11.022;2023-06-14T06:59:30;4.88;;;4.40;;
9761;SDS011;4920;49.594;11.022;2023-06-14T07:02:00;6.55;;;4.57;;
9761;SDS011;4920;49.594;11.022;2023-06-14T07:04:29;5.03;;;4.50;;
9761;SDS011;4920;49.594;11.022;2023-06-14T07:06:57;5.82;;;4.20;;
9761;SDS011;4920;49.594;11.022;2023-06-14T07:09:26;7.43;;;4.15;;
9761;SDS011;4920;49.594;11.022;2023-06-14T07:11:55;8.10;;;4.43;;
9761;SDS011;4920;49.594;11.022;2023-06-14T07:14:23;6.60;;;4.43;;
9761;SDS011;4920;49.594;11.022;2023-06-14T07:16:52;5.93;;;4.35;;
9761;SDS011;4920;49.594;11.022;2023-06-14T07:19:22;6.43;;;4.20;;
9761;SDS011;4920;49.594;11.022;2023-06-14T07:21:51;6.20;;;4.63;;
9761;SDS011;4920;49.594;11.022;2023-06-14T07:24:20;5.00;;;4.20;;
9761;SDS011;4920;49.594;11.022;2023-06-14T07:26:49;4.93;;;4.20;;
9761;SDS011;4920;49.594;11.022;2023-06-14T07:29:18;4.88;;;4.35;;
9761;SDS011;4920;49.594;11.022;2023-06-14T07:31:48;7.25;;;4.35;;
9761;SDS011;4920;49.594;11.022;2023-06-14T07:34:17;5.40;;;4.35;;
9761;SDS011;4920;49.594;11.022;2023-06-14T07:36:47;7.25;;;4.15;;
9761;SDS011;4920;49.594;11.022;2023-06-14T07:39:15;5.75;;;4.53;;
9761;SDS011;4920;49.594;11.022;2023-06-14T07:41:44;6.80;;;4.40;;
9761;SDS011;4920;49.594;11.022;2023-06-14T07:44:13;6.70;;;4.32;;
9761;SDS011;4920;49.594;11.022;2023-06-14T07:46:42;8.88;;;4.20;;
9761;SDS011;4920;49.594;11.022;2023-06-14T07:49:12;4.55;;;4.15;;
9761;SDS011;4920;49.594;11.022;2023-06-14T07:51:42;4.72;;;4.30;;
9761;SDS011;4920;49.594;11.022;2023-06-14T07:54:12;7.90;;;4.18;;
9761;SDS011;4920;49.594;11.022;2023-06-14T07:56:41;6.15;;;4.30;;
9761;SDS011;4920;49.594;11.022;2023-06-14T07:59:10;6.57;;;4.13;;
9761;SDS011;4920;49.594;11.022;2023-06-14T08:01:39;9.55;;;4.38;;
9761;SDS011;4920;49.594;11.022;2023-06-14T08:04:13;7.97;;;4.30;;
9761;SDS011;4920;49.594;11.022;2023-06-14T08:06:42;4.40;;;3.80;;
9761;SDS011;4920;49.594;11.022;2023-06-14T08:09:14;5.28;;;4.05;;
9761;SDS011;4920;49.594;11.022;2023-06-14T08:11:42;7.00;;;4.10;;
9761;SDS011;4920;49.594;11.022;2023-06-14T08:14:11;8.75;;;3.85;;
9761;SDS011;4920;49.594;11.022;2023-06-14T08:16:39;7.07;;;3.97;;
9761;SDS011;4920;49.594;11.022;2023-06-14T08:19:08;6.80;;;4.50;;
9761;SDS011;4920;49.594;11.022;2023-06-14T08:21:37;6.72;;;3.97;;
9761;SDS011;4920;49.594;11.022;2023-06-14T08:24:06;5.15;;;4.20;;
9761;SDS011;4920;49.594;11.022;2023-06-14T08:26:38;8.80;;;4.40;;
9761;SDS011;4920;49.594;11.022;2023-06-14T08:29:07;8.80;;;3.80;;
9761;SDS011;4920;49.594;11.022;2023-06-14T08:31:35;5.95;;;3.90;;
9761;SDS011;4920;49.594;11.022;2023-06-14T08:34:04;6.95;;;4.10;;
9761;SDS011;4920;49.594;11.022;2023-06-14T08:36:34;6.43;;;4.00;;
9761;SDS011;4920;49.594;11.022;2023-06-14T08:39:03;8.20;;;3.90;;
9761;SDS011;4920;49.594;11.022;2023-06-14T08:41:32;6.32;;;3.90;;
9761;SDS011;4920;49.594;11.022;2023-06-14T08:44:03;5.93;;;3.28;;
9761;SDS011;4920;49.594;11.022;2023-06-14T08:46:34;6.15;;;3.90;;
9761;SDS011;4920;49.594;11.022;2023-06-14T08:49:05;9.80;;;3.78;;
9761;SDS011;4920;49.594;11.022;2023-06-14T08:51:35;7.15;;;3.90;;
9761;SDS011;4920;49.594;11.022;2023-06-14T08:54:04;7.80;;;3.80;;
9761;SDS011;4920;49.594;11.022;2023-06-14T08:56:33;5.47;;;3.55;;
9761;SDS011;4920;49.594;11.022;2023-06-14T08:59:06;4.00;;;3.60;;
9761;SDS011;4920;49.594;11.022;2023-06-14T09:01:37;4.47;;;3.60;;
9761;SDS011;4920;49.594;11.022;2023-06-14T09:04:12;5.85;;;3.78;;
9761;SDS011;4920;49.594;11.022;2023-06-14T09:06:40;7.70;;;3.90;;
9761;SDS011;4920;49.594;11.022;2023-06-14T09:09:10;4.05;;;3.65;;
9761;SDS011;4920;49.594;11.022;2023-06-14T09:11:41;7.47;;;3.90;;
9761;SDS011;4920;49.594;11.022;2023-06-14T09:14:12;5.60;;;3.95;;
9761;SDS011;4920;49.594;11.022;2023-06-14T09:16:41;7.75;;;3.83;;
9761;SDS011;4920;49.594;11.022;2023-06-14T09:19:10;6.28;;;3.88;;
9761;SDS011;4920;49.594;11.022;2023-06-14T09:21:42;6.25;;;3.70;;
9761;SDS011;4920;49.594;11.022;2023-06-14T09:24:15;6.97;;;3.85;;
9761;SDS011;4920;49.594;11.022;2023-06-14T09:26:46;5.53;;;4.00;;
9761;SDS011;4920;49.594;11.022;2023-06-14T09:29:17;6.32;;;3.70;;
9761;SDS011;4920;49.594;11.022;2023-06-14T09:31:46;6.13;;;3.97;;
9761;SDS011;4920;49.594;11.022;2023-06-14T09:34:15;8.45;;;3.80;;
9761;SDS011;4920;49.594;11.022;2023-06-14T09:36:44;7.10;;;3.58;;
9761;SDS011;4920;49.594;11.022;2023-06-14T09:39:16;5.38;;;3.65;;
9761;SDS011;4920;49.594;11.022;2023-06-14T09:41:45;4.13;;;3.67;;
9761;SDS011;4920;49.594;11.022;2023-06-14T09:44:14;4.80;;;3.53;;
9761;SDS011;4920;49.594;11.022;2023-06-14T09:46:49;4.65;;;3.60;;
9761;SDS011;4920;49.594;11.022;2023-06-14T09:49:18;6.55;;;3.58;;
9761;SDS011;4920;49.594;11.022;2023-06-14T09:51:51;6.32;;;3.70;;
9761;SDS011;4920;49.594;11.022;2023-06-14T09:54:22;4.80;;;3.45;;
9761;SDS011;4920;49.594;11.022;2023-06-14T09:56:52;8.32;;;3.78;;
9761;SDS011;4920;49.594;11.022;2023-06-14T09:59:22;9.65;;;3.50;;
9761;SDS011;4920;49.594;11.022;2023-06-14T10:02:00;7.60;;;3.50;;
9761;SDS011;4920;49.594;11.022;2023-06-14T10:04:35;4.43;;;3.45;;
9761;SDS011;4920;49.594;11.022;2023-06-14T10:07:05;5.32;;;3.50;;
9761;SDS011;4920;49.594;11.022;2023-06-14T10:09:34;4.85;;;3.47;;
9761;SDS011;4920;49.594;11.022;2023-06-14T10:12:03;4.80;;;3.58;;
9761;SDS011;4920;49.594;11.022;2023-06-14T10:14:33;4.57;;;3.70;;
9761;SDS011;4920;49.594;11.022;2023-06-14T10:17:04;4.90;;;3.33;;
9761;SDS011;4920;49.594;11.022;2023-06-14T10:19:41;4.38;;;3.78;;
9761;SDS011;4920;49.594;11.022;2023-06-14T10:22:12;5.20;;;3.50;;
9761;SDS011;4920;49.594;11.022;2023-06-14T10:24:46;5.13;;;3.53;;
9761;SDS011;4920;49.594;11.022;2023-06-14T10:27:17;7.00;;;3.60;;
9761;SDS011;4920;49.594;11.022;2023-06-14T10:30:03;8.60;;;4.03;;
9761;SDS011;4920;49.594;11.022;2023-06-14T10:32:36;6.53;;;3.70;;
9761;SDS011;4920;49.594;11.022;2023-06-14T10:35:31;8.10;;;3.70;;
9761;SDS011;4920;49.594;11.022;2023-06-14T10:38:07;5.88;;;3.47;;
9761;SDS011;4920;49.594;11.022;2023-06-14T10:40:36;5.13;;;3.70;;
9761;SDS011;4920;49.594;11.022;2023-06-14T10:43:21;9.43;;;3.78;;
9761;SDS011;4920;49.594;11.022;2023-06-14T10:48:44;4.75;;;3.53;;
9761;SDS011;4920;49.594;11.022;2023-06-14T10:51:17;5.38;;;3.33;;
9761;SDS011;4920;49.594;11.022;2023-06-14T10:53:49;5.40;;;3.67;;
9761;SDS011;4920;49.594;11.022;2023-06-14T10:56:28;6.68;;;3.42;;
9761;SDS011;4920;49.594;11.022;2023-06-14T10:58:57;4.78;;;3.80;;
9761;SDS011;4920;49.594;11.022;2023-06-14T11:01:36;8.70;;;3.45;;
9761;SDS011;4920;49.594;11.022;2023-06-14T11:04:08;6.00;;;3.42;;
9761;SDS011;4920;49.594;11.022;2023-06-14T11:06:44;3.92;;;3.53;;
9761;SDS011;4920;49.594;11.022;2023-06-14T11:09:20;4.57;;;3.50;;
9761;SDS011;4920;49.594;11.022;2023-06-14T11:12:17;6.00;;;3.33;;
9761;SDS011;4920;49.594;11.022;2023-06-14T11:14:46;4.07;;;3.50;;
9761;SDS011;4920;49.594;11.022;2023-06-14T11:17:15;6.57;;;3.47;;
9761;SDS011;4920;49.594;11.022;2023-06-14T11:19:46;9.95;;;3.88;;
9761;SDS011;4920;49.594;11.022;2023-06-14T11:22:14;5.43;;;3.70;;
9761;SDS011;4920;49.594;11.022;2023-06-14T11:24:43;5.13;;;3.50;;
9761;SDS011;4920;49.594;11.022;2023-06-14T11:27:12;6.55;;;3.13;;
9761;SDS011;4920;49.594;11.022;2023-06-14T11:29:47;4.40;;;3.33;;
9761;SDS011;4920;49.594;11.022;2023-06-14T11:32:16;5.50;;;3.30;;
9761;SDS011;4920;49.594;11.022;2023-06-14T11:34:47;5.35;;;3.53;;
9761;SDS011;4920;49.594;11.022;2023-06-14T11:37:15;8.18;;;3.70;;
9761;SDS011;4920;49.594;11.022;2023-06-14T11:39:44;7.00;;;3.50;;
9761;SDS011;4920;49.594;11.022;2023-06-14T11:42:13;4.63;;;3.80;;
9761;SDS011;4920;49.594;11.022;2023-06-14T11:44:43;5.22;;;3.17;;
9761;SDS011;4920;49.594;11.022;2023-06-14T11:47:14;4.95;;;3.65;;
9761;SDS011;4920;49.594;11.022;2023-06-14T11:49:42;4.15;;;3.60;;
9761;SDS011;4920;49.594;11.022;2023-06-14T11:52:13;6.45;;;3.53;;
9761;SDS011;4920;49.594;11.022;2023-06-14T11:54:42;5.32;;;3.53;;
9761;SDS011;4920;49.594;11.022;2023-06-14T11:57:10;5.63;;;3.50;;
9761;SDS011;4920;49.594;11.022;2023-06-14T11:59:39;5.47;;;3.13;;
9761;SDS011;4920;49.594;11.022;2023-06-14T12:02:13;5.40;;;3.58;;
9761;SDS011;4920;49.594;11.022;2023-06-14T12:04:42;4.70;;;3.22;;
9761;SDS011;4920;49.594;11.022;2023-06-14T12:07:14;3.92;;;3.45;;
9761;SDS011;4920;49.594;11.022;2023-06-14T12:12:35;4.45;;;3.40;;
9761;SDS011;4920;49.594;11.022;2023-06-14T12:15:06;7.05;;;3.50;;
9761;SDS011;4920;49.594;11.022;2023-06-14T12:17:38;7.30;;;3.40;;
9761;SDS011;4920;49.594;11.022;2023-06-14T12:20:09;4.05;;;3.58;;
9761;SDS011;4920;49.594;11.022;2023-06-14T12:22:50;4.15;;;3.38;;
9761;SDS011;4920;49.594;11.022;2023-06-14T12:25:23;6.70;;;3.10;;
9761;SDS011;4920;49.594;11.022;2023-06-14T12:27:54;4.15;;;3.55;;
9761;SDS011;4920;49.594;11.022;2023-06-14T12:30:23;5.20;;;3.40;;
9761;SDS011;4920;49.594;11.022;2023-06-14T12:32:52;4.05;;;3.00;;
9761;SDS011;4920;49.594;11.022;2023-06-14T12:35:21;4.97;;;3.10;;
9761;SDS011;4920;49.594;11.022;2023-06-14T12:37:51;3.45;;;3.00;;
9761;SDS011;4920;49.594;11.022;2023-06-14T12:40:21;4.13;;;3.28;;
9761;SDS011;4920;49.594;11.022;2023-06-14T12:42:50;4.72;;;3.05;;
9761;SDS011;4920;49.594;11.022;2023-06-14T12:45:19;5.28;;;3.20;;
9761;SDS011;4920;49.594;11.022;2023-06-14T12:47:50;4.97;;;3.38;;
9761;SDS011;4920;49.594;11.022;2023-06-14T12:50:18;6.78;;;3.20;;
9761;SDS011;4920;49.594;11.022;2023-06-14T12:52:53;9.82;;;3.40;;
9761;SDS011;4920;49.594;11.022;2023-06-14T12:55:22;5.57;;;3.40;;
9761;SDS011;4920;49.594;11.022;2023-06-14T12:57:50;4.90;;;3.17;;
9761;SDS011;4920;49.594;11.022;2023-06-14T13:00:19;7.15;;;3.05;;
9761;SDS011;4920;49.594;11.022;2023-06-14T13:02:49;4.85;;;3.10;;
9761;SDS011;4920;49.594;11.022;2023-06-14T13:05:18;4.57;;;3.00;;
9761;SDS011;4920;49.594;11.022;2023-06-14T13:07:47;3.90;;;3.50;;
9761;SDS011;4920;49.594;11.022;2023-06-14T13:10:17;7.70;;;3.53;;
9761;SDS011;4920;49.594;11.022;2023-06-14T13:12:46;5.28;;;3.22;;
9761;SDS011;4920;49.594;11.022;2023-06-14T13:15:15;6.85;;;3.28;;
9761;SDS011;4920;49.594;11.022;2023-06-14T13:17:43;4.40;;;3.28;;
9761;SDS011;4920;49.594;11.022;2023-06-14T13:20:15;10.02;;;3.42;;
9761;SDS011;4920;49.594;11.022;2023-06-14T13:22:46;4.38;;;3.00;;
9761;SDS011;4920;49.594;11.022;2023-06-14T13:25:17;6.13;;;3.00;;
9761;SDS011;4920;49.594;11.022;2023-06-14T13:27:46;6.65;;;3.30;;
9761;SDS011;4920;49.594;11.022;2023-06-14T13:30:15;5.78;;;3.25;;
9761;SDS011;4920;49.594;11.022;2023-06-14T13:32:44;3.70;;;3.00;;
9761;SDS011;4920;49.594;11.022;2023-06-14T13:35:16;6.22;;;3.08;;
9761;SDS011;4920;49.594;11.022;2023-06-14T13:37:45;4.85;;;2.90;;
9761;SDS011;4920;49.594;11.022;2023-06-14T13:40:14;4.88;;;2.90;;
9761;SDS011;4920;49.594;11.022;2023-06-14T13:42:45;4.35;;;3.10;;
9761;SDS011;4920;49.594;11.022;2023-06-14T13:45:14;6.45;;;3.17;;
9761;SDS011;4920;49.594;11.022;2023-06-14T13:47:44;3.40;;;2.95;;
9761;SDS011;4920;49.594;11.022;2023-06-14T13:50:15;3.55;;;2.90;;
9761;SDS011;4920;49.594;11.022;2023-06-14T13:52:44;4.03;;;3.00;;
9761;SDS011;4920;49.594;11.022;2023-06-14T13:55:13;7.28;;;3.00;;
9761;SDS011;4920;49.594;11.022;2023-06-14T13:57:42;6.78;;;3.20;;
9761;SDS011;4920;49.594;11.022;2023-06-14T14:00:13;3.42;;;2.83;;
9761;SDS011;4920;49.594;11.022;2023-06-14T14:02:47;3.88;;;2.78;;
9761;SDS011;4920;49.594;11.022;2023-06-14T14:05:17;5.40;;;3.20;;
9761;SDS011;4920;49.594;11.022;2023-06-14T14:07:47;4.38;;;2.80;;
9761;SDS011;4920;49.594;11.022;2023-06-14T14:10:16;4.82;;;3.10;;
9761;SDS011;4920;49.594;11.022;2023-06-14T14:12:46;7.57;;;2.92;;
9761;SDS011;4920;49.594;11.022;2023-06-14T14:15:17;3.97;;;2.92;;
9761;SDS011;4920;49.594;11.022;2023-06-14T14:17:46;3.80;;;2.58;;
9761;SDS011;4920;49.594;11.022;2023-06-14T14:20:15;3.60;;;2.88;;
9761;SDS011;4920;49.594;11.022;2023-06-14T14:22:44;5.07;;;2.70;;
9761;SDS011;4920;49.594;11.022;2023-06-14T14:25:13;5.63;;;3.00;;
9761;SDS011;4920;49.594;11.022;2023-06-14T14:27:41;7.97;;;2.70;;
9761;SDS011;4920;49.594;11.022;2023-06-14T14:30:10;4.32;;;2.80;;
9761;SDS011;4920;49.594;11.022;2023-06-14T14:32:42;4.20;;;2.88;;
9761;SDS011;4920;49.594;11.022;2023-06-14T14:35:11;5.00;;;2.88;;
9761;SDS011;4920;49.594;11.022;2023-06-14T14:37:40;6.18;;;3.40;;
9761;SDS011;4920;49.594;11.022;2023-06-14T14:40:09;4.07;;;3.10;;
9761;SDS011;4920;49.594;11.022;2023-06-14T14:42:40;3.75;;;2.95;;
9761;SDS011;4920;49.594;11.022;2023-06-14T14:45:09;4.28;;;3.22;;
9761;SDS011;4920;49.594;11.022;2023-06-14T14:47:38;4.35;;;3.15;;
9761;SDS011;4920;49.594;11.022;2023-06-14T14:50:09;4.25;;;3.10;;
9761;SDS011;4920;49.594;11.022;2023-06-14T14:52:38;3.03;;;2.70;;
9761;SDS011;4920;49.594;11.022;2023-06-14T14:55:07;3.92;;;2.85;;
9761;SDS011;4920;49.594;11.022;2023-06-14T14:57:36;3.50;;;2.95;;
9761;SDS011;4920;49.594;11.022;2023-06-14T15:00:05;3.80;;;2.80;;
9761;SDS011;4920;49.594;11.022;2023-06-14T15:02:34;3.13;;;2.83;;
9761;SDS011;4920;49.594;11.022;2023-06-14T15:05:03;3.50;;;2.70;;
9761;SDS011;4920;49.594;11.022;2023-06-14T15:07:33;3.35;;;2.75;;
9761;SDS011;4920;49.594;11.022;2023-06-14T15:10:02;6.50;;;3.10;;
9761;SDS011;4920;49.594;11.022;2023-06-14T15:12:33;5.25;;;3.20;;
9761;SDS011;4920;49.594;11.022;2023-06-14T15:15:03;3.55;;;3.13;;
9761;SDS011;4920;49.594;11.022;2023-06-14T15:17:32;5.32;;;2.90;;
9761;SDS011;4920;49.594;11.022;2023-06-14T15:20:01;5.55;;;3.30;;
9761;SDS011;4920;49.594;11.022;2023-06-14T15:22:30;6.20;;;2.85;;
9761;SDS011;4920;49.594;11.022;2023-06-14T15:25:00;3.22;;;2.78;;